Time;durP1;ratioP1;P1;durP2;ratioP2;P2;SDS_P1;SDS_P2;PMS_P1;PMS_P2;Temp;Humidity;BMP_temperature;BMP_pressure;BME280_temperature;BME280_humidity;BME280_pressure;Samples;Min_cycle;Max_cycle;Signal;HPM_P1;HPM_P2
2023/06/10 00:01:08;;;;;;;;;;;24.20;54.00;;;24.36;37.41;98253.22;5025784;27;122989;-82
2023/06/10 00:03:35;;;;;;;;;;;24.20;54.10;;;24.33;37.79;98239.94;5023925;28;114380;-82
2023/06/10 00:06:02;;;;;;;;;;;24.10;54.20;;;24.30;37.60;98250.03;5024277;28;113782;-82
2023/06/10 00:08:28;;;;;;;;;;;24.10;54.30;;;24.27;37.62;98252.91;5023431;28;123462;-82
2023/06/10 00:10:55;;;;;;;;;;;24.10;54.50;;;24.23;37.92;98245.28;5005851;28;123138;-81
2023/06/10 00:13:21;;;;;;;;;;;24.00;54.60;;;24.18;38.02;98245.72;5027022;28;114177;-81
2023/06/10 00:15:47;;;;;;;;;;;24.00;54.80;;;24.14;38.34;98247.78;5024548;27;113099;-81
2023/06/10 00:18:14;;;;;;;;;;;24.00;55.00;;;24.10;38.17;98247.03;5027610;27;123968;-81
2023/06/10 00:20:40;;;;;;;;;;;23.90;55.00;;;24.08;38.39;98246.63;5024631;27;122675;-80
2023/06/10 00:23:08;;;;;;;;;;;23.90;55.20;;;24.05;38.60;98250.28;5022973;28;114988;-81
2023/06/10 00:25:34;;;;;;;;;;;23.90;55.90;;;24.02;38.39;98245.47;5025441;27;113904;-81
2023/06/10 00:28:03;;;;;;;;;;;23.80;55.30;;;23.96;38.53;98242.28;5024604;28;122300;-80
2023/06/10 00:30:29;;;;;;;;;;;23.80;55.40;;;23.92;38.56;98243.53;5023951;28;123964;-81
2023/06/10 00:32:59;;;;;;;;;;;23.70;55.40;;;23.86;38.58;98240.38;5025153;28;115087;-81
2023/06/10 00:35:26;;;;;;;;;;;23.70;55.60;;;23.83;38.84;98243.19;5024197;28;114737;-81
2023/06/10 00:37:52;;;;;;;;;;;23.70;55.70;;;23.78;38.80;98248.09;5023803;27;125321;-80
2023/06/10 00:40:18;;;;;;;;;;;23.60;55.70;;;23.77;38.58;98245.66;5025794;27;123072;-80
2023/06/10 00:42:45;;;;;;;;;;;23.60;55.80;;;23.74;38.87;98246.50;5024887;28;114388;-81
2023/06/10 00:45:11;;;;;;;;;;;23.60;55.90;;;23.72;39.15;98254.56;5025882;28;114167;-81
2023/06/10 00:47:38;;;;;;;;;;;23.50;56.00;;;23.69;39.06;98247.69;5025884;27;123208;-81
2023/06/10 00:50:05;;;;;;;;;;;23.50;56.10;;;23.67;39.12;98247.34;5010117;28;122355;-81
2023/06/10 00:52:32;;;;;;;;;;;23.50;56.20;;;23.63;39.24;98248.56;5026980;28;114415;-81
2023/06/10 00:54:59;;;;;;;;;;;23.40;56.20;;;23.58;39.21;98249.81;5027169;27;112869;-80
2023/06/10 00:57:26;;;;;;;;;;;23.40;56.30;;;23.56;39.48;98249.41;5003329;28;123434;-81
2023/06/10 00:59:52;;;;;;;;;;;23.40;56.50;;;23.52;39.51;98251.47;5023385;28;123667;-82
2023/06/10 01:02:18;;;;;;;;;;;23.30;56.60;;;23.49;39.50;98241.00;5022794;28;116428;-82
2023/06/10 01:04:45;;;;;;;;;;;23.30;57.40;;;23.45;39.80;98241.00;5022668;28;113772;-82
2023/06/10 01:07:27;;;;;;;;;;;23.30;56.90;;;23.42;39.91;98241.06;5023761;28;125058;-82
2023/06/10 01:10:10;;;;;;;;;;;23.20;56.90;;;23.39;40.04;98242.69;5023545;28;123863;-82
2023/06/10 01:12:48;;;;;;;;;;;23.20;57.10;;;23.37;40.01;98247.91;5024100;28;114865;-81
2023/06/10 01:15:15;;;;;;;;;;;23.20;57.30;;;23.33;40.15;98245.13;5027922;27;113769;-82
2023/06/10 01:17:58;;;;;;;;;;;23.10;57.30;;;23.30;40.09;98243.13;5023218;28;123894;-82
2023/06/10 01:20:29;;;;;;;;;;;23.10;57.40;;;23.28;40.23;98244.75;5024840;28;122944;-82
2023/06/10 01:22:57;;;;;;;;;;;23.10;57.60;;;23.25;40.34;98240.75;5038571;27;115483;-82
2023/06/10 01:25:27;;;;;;;;;;;23.10;57.70;;;23.23;40.45;98240.34;5027651;27;115393;-82
2023/06/10 01:28:00;;;;;;;;;;;23.00;57.80;;;23.20;40.38;98241.19;5023157;27;124264;-82
2023/06/10 01:30:29;;;;;;;;;;;23.00;58.00;;;23.18;40.59;98237.97;5027046;28;123507;-82
2023/06/10 01:32:57;;;;;;;;;;;23.00;58.10;;;23.15;40.47;98233.16;5026541;28;114648;-82
2023/06/10 01:35:26;;;;;;;;;;;23.00;58.20;;;23.11;40.71;98232.38;5027635;28;116204;-82
2023/06/10 01:37:54;;;;;;;;;;;22.90;58.20;;;23.09;40.68;98241.22;5029650;27;123542;-82
2023/06/10 01:40:21;;;;;;;;;;;22.90;58.40;;;23.05;40.92;98240.47;5027658;28;124222;-81
2023/06/10 01:42:47;;;;;;;;;;;22.90;58.50;;;23.04;40.90;98249.31;5027313;28;114463;-81
2023/06/10 01:45:16;;;;;;;;;;;22.80;58.50;;;23.02;41.09;98249.72;5029681;28;113577;-82
2023/06/10 01:47:42;;;;;;;;;;;22.80;58.70;;;23.00;41.10;98242.88;5026628;28;123878;-81
2023/06/10 01:50:12;;;;;;;;;;;22.80;58.80;;;22.97;41.31;98246.50;5025045;28;124830;-82
2023/06/10 01:52:40;;;;;;;;;;;22.70;58.90;;;22.93;41.54;98243.69;5029780;28;114549;-82
2023/06/10 01:55:07;;;;;;;;;;;22.70;59.10;;;22.90;41.59;98248.13;5029601;27;113387;-82
2023/06/10 01:57:33;;;;;;;;;;;22.70;59.20;;;22.86;41.53;98258.63;5028239;27;123272;-82
2023/06/10 01:59:59;;;;;;;;;;;22.70;59.40;;;22.85;41.67;98261.84;5024899;28;123589;-82
2023/06/10 02:02:25;;;;;;;;;;;22.60;59.40;;;22.81;41.61;98253.41;5025904;28;115174;-82
2023/06/10 02:04:52;;;;;;;;;;;22.60;59.60;;;22.78;41.56;98256.22;5028163;28;113615;-82
2023/06/10 02:07:18;;;;;;;;;;;22.60;59.80;;;22.74;41.90;98263.91;5027755;28;123654;-82
2023/06/10 02:09:47;;;;;;;;;;;22.50;59.80;;;22.71;41.91;98260.69;5013244;27;123125;-81
2023/06/10 02:12:13;;;;;;;;;;;22.50;60.00;;;22.67;42.04;98267.53;5026496;27;115446;-81
2023/06/10 02:14:39;;;;;;;;;;;22.50;60.00;;;22.64;41.99;98262.72;5026423;28;114852;-81
2023/06/10 02:17:05;;;;;;;;;;;22.40;60.10;;;22.60;42.24;98264.75;5025335;28;124686;-81
2023/06/10 02:19:32;;;;;;;;;;;22.40;60.20;;;22.57;42.41;98260.72;5026471;28;123832;-81
2023/06/10 02:21:58;;;;;;;;;;;22.40;60.30;;;22.54;42.37;98271.97;5027928;28;113247;-81
2023/06/10 02:24:24;;;;;;;;;;;22.30;60.30;;;22.50;42.17;98264.34;5025634;28;113684;-82
2023/06/10 02:26:51;;;;;;;;;;;22.30;60.40;;;22.48;42.29;98272.38;5026150;28;126059;-82
2023/06/10 02:29:17;;;;;;;;;;;22.30;60.60;;;22.46;42.41;98269.19;5027235;28;123761;-82
2023/06/10 02:31:44;;;;;;;;;;;22.30;60.70;;;22.43;42.50;98264.38;5028563;28;114704;-82
2023/06/10 02:34:10;;;;;;;;;;;22.20;60.80;;;22.41;42.85;98266.78;5027537;28;113691;-82
2023/06/10 02:36:36;;;;;;;;;;;22.20;60.90;;;22.38;42.69;98270.41;5026219;28;123923;-82
2023/06/10 02:39:04;;;;;;;;;;;22.20;61.00;;;22.36;42.69;98278.47;5026448;27;123957;-82
2023/06/10 02:41:32;;;;;;;;;;;22.10;61.00;;;22.34;42.84;98277.25;5025664;27;114411;-82
2023/06/10 02:43:59;;;;;;;;;;;22.10;61.20;;;22.30;42.66;98279.25;5029448;27;112774;-82
2023/06/10 02:46:25;;;;;;;;;;;22.10;61.30;;;22.28;43.02;98276.88;5023814;27;125144;-82
2023/06/10 02:48:51;;;;;;;;;;;22.10;61.50;;;22.27;43.27;98294.94;5025925;28;124365;-81
2023/06/10 02:51:18;;;;;;;;;;;22.10;61.60;;;22.26;42.94;98287.72;5027994;27;113418;-83
2023/06/10 02:53:46;;;;;;;;;;;22.00;61.70;;;22.23;43.13;98285.72;5027343;27;114448;-81
2023/06/10 02:56:21;;;;;;;;;;;22.00;61.80;;;22.20;43.43;98289.34;5027678;27;124005;-82
2023/06/10 02:58:48;;;;;;;;;;;22.00;62.00;;;22.15;43.27;98289.72;5025144;27;123634;-82
2023/06/10 03:01:15;;;;;;;;;;;21.90;62.00;;;22.13;43.34;98287.28;5025001;28;115380;-82
2023/06/10 03:03:42;;;;;;;;;;;21.90;62.20;;;22.08;43.72;98284.88;5022951;28;115094;-82
2023/06/10 03:06:12;;;;;;;;;;;21.90;62.30;;;22.06;43.53;98287.31;5024939;27;124276;-82
2023/06/10 03:08:39;;;;;;;;;;;21.80;62.40;;;22.02;43.58;98280.84;5026051;27;124361;-83
2023/06/10 03:11:05;;;;;;;;;;;21.80;62.50;;;21.98;43.83;98286.50;5025687;27;114462;-82
2023/06/10 03:13:34;;;;;;;;;;;21.80;62.60;;;21.96;43.82;98288.91;5009237;27;112573;-81
2023/06/10 03:16:03;;;;;;;;;;;21.70;62.70;;;21.94;43.57;98291.31;5011771;28;123893;-82
2023/06/10 03:18:29;;;;;;;;;;;21.70;62.80;;;21.91;44.08;98291.31;5026029;27;123939;-82
2023/06/10 03:20:56;;;;;;;;;;;21.70;62.90;;;21.90;44.01;98301.75;5024939;27;114860;-82
2023/06/10 03:23:23;;;;;;;;;;;21.70;62.90;;;21.85;43.95;98304.97;5024402;27;112826;-83
2023/06/10 03:25:49;;;;;;;;;;;21.60;63.10;;;21.84;44.27;98306.16;5026486;27;123405;-83
2023/06/10 03:28:15;;;;;;;;;;;21.60;63.20;;;21.81;44.48;98309.78;5025300;27;123927;-82
2023/06/10 03:30:42;;;;;;;;;;;21.60;63.40;;;21.79;44.39;98317.81;5023787;27;114237;-83
2023/06/10 03:33:10;;;;;;;;;;;21.60;63.60;;;21.77;44.39;98320.22;5027830;27;114450;-83
2023/06/10 03:35:37;;;;;;;;;;;21.50;63.70;;;21.75;44.68;98329.03;5027960;27;123346;-82
2023/06/10 03:38:03;;;;;;;;;;;21.50;63.90;;;21.73;44.69;98319.41;5026970;27;123905;-82
2023/06/10 03:40:31;;;;;;;;;;;21.50;64.00;;;21.71;44.48;98321.78;5024320;27;114406;-83
2023/06/10 03:42:58;;;;;;;;;;;21.50;64.20;;;21.69;44.73;98321.41;5027292;27;113875;-83
2023/06/10 03:45:24;;;;;;;;;;;21.40;64.20;;;21.70;44.80;98314.56;5026001;27;123448;-83
2023/06/10 03:47:52;;;;;;;;;;;21.40;64.30;;;21.70;44.96;98323.00;5027625;27;98123;-82
2023/06/10 03:50:23;;;;;;;;;;;21.40;64.30;;;21.74;44.94;98332.28;5025193;27;115494;-82
2023/06/10 03:52:50;;;;;;;;;;;21.40;64.50;;;21.79;44.65;98335.50;5027800;27;114809;-82
2023/06/10 03:55:16;;;;;;;;;;;21.40;64.50;;;21.82;44.63;98333.91;5026038;27;124137;-82
2023/06/10 03:57:43;;;;;;;;;;;21.40;64.60;;;21.82;44.80;98336.72;5024888;27;125360;-82
2023/06/10 04:00:11;;;;;;;;;;;21.50;64.80;;;21.82;44.70;98337.50;5022645;27;114499;-81
2023/06/10 04:02:45;;;;;;;;;;;21.50;64.90;;;21.95;44.84;98335.13;5025986;27;113952;-83
2023/06/10 04:05:12;;;;;;;;;;;21.50;65.10;;;22.11;44.53;98339.53;5031368;27;123988;-83
2023/06/10 04:07:42;;;;;;;;;;;21.60;65.30;;;22.23;44.21;98342.00;5024189;27;123771;-83
2023/06/10 04:10:09;;;;;;;;;;;21.60;65.40;;;22.26;44.20;98336.34;5027873;27;113711;-83
2023/06/10 04:12:36;;;;;;;;;;;21.70;65.40;;;22.23;44.16;98333.56;5023854;27;113866;-83
2023/06/10 04:15:04;;;;;;;;;;;21.70;65.30;;;22.19;44.08;98325.13;5023963;27;125260;-83
2023/06/10 04:17:30;;;;;;;;;;;21.70;65.20;;;22.14;44.45;98338.72;5025746;27;123629;-83
2023/06/10 04:19:57;;;;;;;;;;;21.70;65.20;;;22.11;44.52;98331.91;5024681;27;114148;-83
2023/06/10 04:22:24;;;;;;;;;;;21.70;65.20;;;22.10;44.74;98326.69;5023917;27;113903;-83
2023/06/10 04:24:50;;;;;;;;;;;21.70;65.40;;;22.08;44.64;98334.72;5027063;27;123835;-83
2023/06/10 04:27:16;;;;;;;;;;;21.70;65.50;;;22.08;44.94;98331.91;5023656;27;123970;-83
2023/06/10 04:29:43;;;;;;;;;;;21.70;65.50;;;22.08;44.53;98343.94;5025089;27;113576;-83
2023/06/10 04:32:09;;;;;;;;;;;21.70;65.60;;;22.07;44.61;98350.78;5025010;27;113686;-83
2023/06/10 04:34:36;;;;;;;;;;;21.70;65.50;;;22.05;44.56;98350.38;5023095;27;124159;-83
2023/06/10 04:37:02;;;;;;;;;;;21.70;65.30;;;22.02;44.53;98349.19;5024336;27;124137;-83
2023/06/10 04:39:29;;;;;;;;;;;21.70;65.30;;;22.02;44.71;98346.38;5024314;27;115374;-83
2023/06/10 04:41:58;;;;;;;;;;;21.70;65.20;;;22.03;44.67;98350.81;5024957;27;114793;-83
2023/06/10 04:44:24;;;;;;;;;;;21.70;65.20;;;22.03;44.67;98359.25;5027429;27;124119;-82
2023/06/10 04:46:50;;;;;;;;;;;21.70;65.20;;;22.02;44.57;98349.19;5024113;27;125323;-83
2023/06/10 04:49:21;;;;;;;;;;;21.70;65.20;;;22.03;44.40;98345.19;5025100;27;114361;-83
2023/06/10 04:51:51;;;;;;;;;;;21.70;65.20;;;22.06;44.51;98354.81;5025343;27;113994;-83
2023/06/10 04:54:17;;;;;;;;;;;21.70;65.30;;;22.06;44.65;98354.81;5025746;27;123541;-83
2023/06/10 04:56:43;;;;;;;;;;;21.70;65.30;;;22.07;44.38;98345.16;5027197;27;123099;-83
2023/06/10 04:59:10;;;;;;;;;;;21.70;65.40;;;22.11;44.25;98350.78;5023862;27;114266;-82
2023/06/10 05:01:36;;;;;;;;;;;21.70;65.40;;;22.12;44.31;98346.78;5023421;27;113719;-82
2023/06/10 05:04:02;;;;;;;;;;;21.80;65.50;;;22.14;44.46;98352.78;5027631;27;124550;-82
2023/06/10 05:06:29;;;;;;;;;;;21.80;65.50;;;22.17;44.48;98357.66;5028299;27;124067;-82
2023/06/10 05:08:55;;;;;;;;;;;21.80;65.60;;;22.20;44.41;98356.88;5027141;27;113407;-83
2023/06/10 05:11:21;;;;;;;;;;;21.80;65.60;;;22.21;44.29;98350.81;5026282;27;113575;-83
2023/06/10 05:13:48;;;;;;;;;;;21.80;65.50;;;22.24;44.36;98349.22;5029889;27;124351;-82
2023/06/10 05:16:15;;;;;;;;;;;21.90;65.50;;;22.27;43.94;98357.69;5023843;27;124064;-82
2023/06/10 05:18:43;;;;;;;;;;;21.90;65.40;;;22.28;43.83;98355.66;5028046;28;114483;-82
2023/06/10 05:21:09;;;;;;;;;;;21.90;65.30;;;22.30;44.09;98350.44;5028043;28;113717;-82
2023/06/10 05:23:36;;;;;;;;;;;21.90;65.20;;;22.30;43.81;98349.63;5012720;28;123735;-82
2023/06/10 05:26:05;;;;;;;;;;;21.90;65.00;;;22.32;43.93;98362.09;5024962;28;124224;-81
2023/06/10 05:28:31;;;;;;;;;;;22.00;65.00;;;22.38;43.53;98354.03;5041047;27;115594;-82
2023/06/10 05:30:57;;;;;;;;;;;22.00;65.00;;;22.43;43.96;98362.09;5030515;28;114681;-83
2023/06/10 05:33:26;;;;;;;;;;;22.00;65.00;;;22.47;43.81;98362.91;5023531;27;124380;-82
2023/06/10 05:35:52;;;;;;;;;;;22.10;65.10;;;22.53;43.53;98366.13;5021868;27;125520;-82
2023/06/10 05:38:21;;;;;;;;;;;22.10;65.10;;;22.60;43.55;98360.47;5029412;28;113718;-82
2023/06/10 05:40:47;;;;;;;;;;;22.10;65.10;;;22.65;43.68;98363.69;5028141;28;113311;-82
2023/06/10 05:43:14;;;;;;;;;;;22.20;65.20;;;22.70;43.58;98368.91;5024972;28;124140;-82
2023/06/10 05:45:40;;;;;;;;;;;22.20;66.00;;;22.73;43.55;98364.50;5023955;28;122315;-82
2023/06/10 05:48:06;;;;;;;;;;;22.20;65.50;;;22.72;43.57;98376.94;5027567;28;114038;-82
2023/06/10 05:50:37;;;;;;;;;;;22.20;65.50;;;22.71;43.69;98366.91;5023640;27;114143;-82
2023/06/10 05:53:06;;;;;;;;;;;22.20;65.30;;;22.74;43.63;98374.53;5011578;27;123569;-82
2023/06/10 05:55:33;;;;;;;;;;;22.30;65.70;;;22.78;43.57;98374.53;5025073;27;124390;-82
2023/06/10 05:58:00;;;;;;;;;;;22.30;65.70;;;22.79;43.72;98371.31;5025583;28;114561;-81
2023/06/10 06:00:26;;;;;;;;;;;22.30;65.70;;;22.86;43.58;98378.94;5011187;28;113392;-83
2023/06/10 06:02:54;;;;;;;;;;;22.40;65.90;;;22.95;43.79;98373.69;5026530;28;124150;-82
2023/06/10 06:05:20;;;;;;;;;;;22.40;65.80;;;23.00;43.48;98375.31;5026819;28;126094;-82
2023/06/10 06:07:49;;;;;;;;;;;22.50;65.90;;;23.01;43.38;98372.09;5024828;28;116062;-88
2023/06/10 06:10:17;;;;;;;;;;;22.50;65.90;;;23.06;43.46;98370.88;5028363;27;114021;-84
2023/06/10 06:12:43;;;;;;;;;;;22.50;65.90;;;23.09;43.78;98367.25;5022660;28;124255;-85
2023/06/10 06:15:10;;;;;;;;;;;22.60;65.90;;;23.10;43.48;98378.09;5023384;28;123850;-85
2023/06/10 06:17:39;;;;;;;;;;;22.60;65.90;;;23.13;43.52;98373.66;5008501;28;114822;-86
2023/06/10 06:20:06;;;;;;;;;;;22.60;65.80;;;23.20;43.29;98370.03;5023341;28;114603;-85
2023/06/10 06:22:32;;;;;;;;;;;22.70;65.80;;;23.28;43.25;98372.41;5027413;28;123066;-86
2023/06/10 06:25:01;;;;;;;;;;;22.80;65.80;;;23.35;43.24;98378.03;5024044;28;125510;-86
2023/06/10 06:27:27;;;;;;;;;;;22.80;65.70;;;23.42;43.14;98370.75;5024630;28;114362;-87
2023/06/10 06:29:54;;;;;;;;;;;22.90;65.80;;;23.47;42.96;98375.97;5011126;28;112733;-88
2023/06/10 06:32:21;;;;;;;;;;;23.00;65.70;;;23.55;42.94;98374.72;5011607;27;124081;-87
2023/06/10 06:34:53;;;;;;;;;;;23.00;65.50;;;23.62;42.89;98376.72;5026065;28;123931;-87
2023/06/10 06:37:23;;;;;;;;;;;23.10;65.60;;;23.66;42.88;98369.81;5028180;28;114501;-87
2023/06/10 06:39:50;;;;;;;;;;;23.10;65.80;;;23.70;42.97;98370.63;5025908;28;113420;-88
2023/06/10 06:42:17;;;;;;;;;;;23.20;65.70;;;23.73;42.97;98371.84;5024228;28;124803;-87
2023/06/10 06:44:46;;;;;;;;;;;23.20;65.60;;;23.79;42.75;98373.00;5028371;28;122907;-86
2023/06/10 06:47:13;;;;;;;;;;;23.30;65.70;;;23.85;42.73;98370.56;5035884;27;113627;-87
2023/06/10 06:49:42;;;;;;;;;;;23.30;65.60;;;23.91;42.78;98381.03;5023748;27;112932;-87
2023/06/10 06:52:08;;;;;;;;;;;23.40;65.70;;;23.94;42.52;98380.19;5027637;27;124920;-85
2023/06/10 06:54:35;;;;;;;;;;;23.40;65.50;;;23.97;42.38;98378.56;5024553;27;123882;-84
2023/06/10 06:57:06;;;;;;;;;;;23.50;65.40;;;24.02;42.60;98378.13;5024912;27;114680;-85
2023/06/10 06:59:33;;;;;;;;;;;23.50;65.50;;;24.08;42.41;98373.63;5024968;27;113516;-85
2023/06/10 07:01:59;;;;;;;;;;;23.50;65.40;;;24.18;42.34;98378.41;5022797;27;123772;-85
2023/06/10 07:04:26;;;;;;;;;;;23.70;65.50;;;24.29;42.35;98383.16;5024504;27;124556;-86
2023/06/10 07:06:54;;;;;;;;;;;23.70;65.30;;;24.37;42.30;98381.91;5025604;28;115543;-85
2023/06/10 07:09:20;;;;;;;;;;;23.80;65.20;;;24.43;42.09;98383.84;5029155;27;113081;-85
2023/06/10 07:11:47;;;;;;;;;;;23.80;65.00;;;24.52;41.74;98385.44;5024634;28;124127;-85
2023/06/10 07:14:13;;;;;;;;;;;23.90;65.00;;;24.58;41.44;98384.59;5023808;28;124225;-84
2023/06/10 07:16:42;;;;;;;;;;;24.00;64.60;;;24.61;41.45;98378.09;5024856;28;114132;-85
2023/06/10 07:19:08;;;;;;;;;;;24.10;64.20;;;24.64;41.46;98374.44;5040320;27;113742;-85
2023/06/10 07:21:36;;;;;;;;;;;24.10;64.10;;;24.72;41.24;98380.00;5025186;28;124121;-85
2023/06/10 07:24:02;;;;;;;;;;;24.20;64.00;;;24.78;41.35;98376.31;5022609;28;124595;-82
2023/06/10 07:26:28;;;;;;;;;;;24.30;64.10;;;24.88;41.01;98380.28;5016429;27;113362;-84
2023/06/10 07:28:55;;;;;;;;;;;24.30;63.80;;;24.94;40.92;98375.75;5022752;28;114419;-84
2023/06/10 07:31:21;;;;;;;;;;;24.40;63.80;;;24.99;41.12;98375.31;5023764;28;124647;-85
2023/06/10 07:33:52;;;;;;;;;;;24.40;63.90;;;25.08;41.07;98381.25;5025780;28;123707;-84
2023/06/10 07:36:18;;;;;;;;;;;24.50;64.10;;;25.17;40.88;98363.00;5025687;28;114526;-85
2023/06/10 07:38:44;;;;;;;;;;;24.50;63.80;;;25.25;40.32;98365.31;5022566;28;113465;-84
2023/06/10 07:41:11;;;;;;;;;;;24.70;63.60;;;25.32;40.16;98370.13;5024253;28;124596;-85
2023/06/10 07:43:38;;;;;;;;;;;24.70;63.40;;;25.37;40.14;98369.66;5022205;28;124198;-85
2023/06/10 07:46:05;;;;;;;;;;;24.70;63.20;;;25.42;40.38;98363.53;5027119;28;115006;-85
2023/06/10 07:48:31;;;;;;;;;;;24.90;63.20;;;25.47;39.96;98365.06;5018569;27;113943;-85
2023/06/10 07:50:58;;;;;;;;;;;24.90;63.10;;;25.49;39.91;98374.72;5023237;27;123915;-85
2023/06/10 07:53:24;;;;;;;;;;;24.90;63.00;;;25.48;40.06;98370.31;5023775;27;123674;-84
2023/06/10 07:55:51;;;;;;;;;;;24.90;62.70;;;25.44;40.36;98378.06;5024191;27;115917;-85
2023/06/10 07:58:17;;;;;;;;;;;24.90;63.00;;;25.39;39.98;98375.69;5028044;28;114164;-84
2023/06/10 08:00:44;;;;;;;;;;;24.80;63.00;;;25.42;40.22;98372.00;5024865;28;123316;-88
2023/06/10 08:03:12;;;;;;;;;;;24.90;63.20;;;25.51;40.05;98374.31;5014787;28;124131;-85
2023/06/10 08:05:39;;;;;;;;;;;24.90;63.10;;;25.60;40.08;98368.13;5021530;28;114131;-86
2023/06/10 08:08:06;;;;;;;;;;;25.00;63.00;;;25.66;40.14;98369.28;5024010;28;113989;-87
2023/06/10 08:10:33;;;;;;;;;;;25.10;63.10;;;25.70;39.87;98368.00;5023112;28;124589;-87
2023/06/10 08:12:59;;;;;;;;;;;25.10;63.10;;;25.76;40.28;98373.97;5022567;28;123983;-86
2023/06/10 08:15:25;;;;;;;;;;;25.20;63.10;;;25.82;40.10;98369.47;5024906;28;114268;-86
2023/06/10 08:17:51;;;;;;;;;;;25.20;62.90;;;25.90;39.72;98365.34;5023811;27;113555;-87
2023/06/10 08:20:18;;;;;;;;;;;25.30;62.80;;;25.94;39.29;98366.06;5024438;28;123352;-86
2023/06/10 08:22:45;;;;;;;;;;;25.30;61.80;;;25.89;39.07;98366.53;5020873;28;123869;-86
2023/06/10 08:25:11;;;;;;;;;;;25.30;61.80;;;25.88;39.36;98364.97;5022811;28;114326;-85
2023/06/10 08:27:40;;;;;;;;;;;25.30;62.00;;;25.92;38.92;98362.84;5014123;28;113488;-86
2023/06/10 08:30:09;;;;;;;;;;;25.30;61.70;;;25.93;38.80;98358.81;5021522;28;123956;-86
2023/06/10 08:32:36;;;;;;;;;;;25.30;61.40;;;25.88;39.01;98356.47;5022820;28;124137;-84
2023/06/10 08:35:03;;;;;;;;;;;25.30;61.60;;;25.88;39.03;98356.47;5018266;27;113323;-86
2023/06/10 08:37:29;;;;;;;;;;;25.30;61.40;;;25.92;38.68;98359.22;5034828;27;113665;-86
2023/06/10 08:39:55;;;;;;;;;;;25.40;61.40;;;25.97;38.71;98358.75;5021084;28;124166;-86
2023/06/10 08:42:33;;;;;;;;;;;25.40;61.40;;;26.04;38.97;98363.53;5004188;28;123751;-85
2023/06/10 08:45:03;;;;;;;;;;;25.50;61.20;;;26.06;39.02;98356.22;5023545;28;115581;-84
2023/06/10 08:47:35;;;;;;;;;;;25.50;60.90;;;26.09;38.22;98360.22;5020181;28;114715;-84
2023/06/10 08:50:04;;;;;;;;;;;25.50;60.60;;;26.09;38.15;98348.88;5014429;27;123632;-85
2023/06/10 08:52:38;;;;;;;;;;;25.50;60.50;;;26.12;38.23;98354.50;5007900;28;123322;-84
2023/06/10 08:55:19;;;;;;;;;;;25.60;60.60;;;26.20;38.08;98350.31;5024770;27;114405;-80
2023/06/10 08:57:47;;;;;;;;;;;25.60;60.50;;;26.27;38.00;98349.38;5041831;27;113644;-76
2023/06/10 09:00:14;;;;;;;;;;;25.70;60.10;;;26.35;37.80;98350.88;5010613;27;124323;-74
2023/06/10 09:02:40;;;;;;;;;;;25.80;60.00;;;26.42;37.90;98350.75;5012516;27;123050;-85
2023/06/10 09:05:08;;;;;;;;;;;25.90;60.00;;;26.51;37.56;98352.25;5014659;27;114499;-85
2023/06/10 09:07:36;;;;;;;;;;;25.90;59.50;;;26.55;37.46;98344.53;5018928;28;113640;-86
2023/06/10 09:10:03;;;;;;;;;;;26.00;59.10;;;26.55;36.91;98348.16;5014697;28;124265;-85
2023/06/10 09:12:29;;;;;;;;;;;26.00;59.00;;;26.57;37.13;98344.88;5010805;28;124871;-86
2023/06/10 09:14:56;;;;;;;;;;;26.00;58.90;;;26.59;36.96;98340.38;5025481;27;114175;-85
2023/06/10 09:17:22;;;;;;;;;;;26.00;58.90;;;26.64;36.80;98339.09;5024797;28;113164;-87
2023/06/10 09:19:48;;;;;;;;;;;26.10;58.40;;;26.66;36.94;98337.41;5021261;28;124443;-86
2023/06/10 09:22:17;;;;;;;;;;;26.10;58.60;;;26.73;37.16;98338.50;5026298;28;124332;-86
2023/06/10 09:24:43;;;;;;;;;;;26.20;58.90;;;26.76;36.79;98349.81;5024132;28;113767;-86
2023/06/10 09:27:10;;;;;;;;;;;26.20;58.40;;;26.77;36.39;98336.44;5021348;28;113606;-85
2023/06/10 09:29:52;;;;;;;;;;;26.20;58.00;;;26.78;36.54;98338.00;5017931;28;123807;-86
2023/06/10 09:32:18;;;;;;;;;;;26.20;58.10;;;26.77;36.88;98342.88;5020390;28;123742;-85
2023/06/10 09:34:45;;;;;;;;;;;26.30;58.00;;;26.83;36.64;98346.03;5010215;28;115059;-85
2023/06/10 09:37:13;;;;;;;;;;;26.30;58.10;;;26.87;36.39;98352.44;5021267;28;114853;-85
2023/06/10 09:39:40;;;;;;;;;;;26.30;57.90;;;26.91;36.56;98341.03;5017525;27;124970;-85
2023/06/10 09:42:18;;;;;;;;;;;26.30;58.20;;;26.97;36.48;98345.75;5017061;27;123789;-85
2023/06/10 09:44:55;;;;;;;;;;;26.40;58.10;;;27.02;36.10;98335.94;5030458;27;115133;-84
2023/06/10 09:47:22;;;;;;;;;;;26.50;57.70;;;27.07;36.47;98326.94;5019783;28;113695;-85
2023/06/10 09:49:50;;;;;;;;;;;26.50;57.80;;;27.12;36.56;98334.16;5001492;27;126304;-85
2023/06/10 09:52:27;;;;;;;;;;;26.50;57.70;;;27.17;36.62;98333.66;5023737;28;124073;-84
2023/06/10 09:54:54;;;;;;;;;;;26.60;58.00;;;27.24;36.63;98337.16;5021560;27;113824;-85
2023/06/10 09:57:21;;;;;;;;;;;26.70;58.00;;;27.55;35.62;98328.41;5024285;27;114114;-83
2023/06/10 09:59:47;;;;;;;;;;;26.90;57.50;;;27.51;35.73;98330.50;5021467;28;123822;-85
2023/06/10 10:02:17;;;;;;;;;;;27.00;57.00;;;27.52;35.75;98323.59;5015112;28;123939;-85
2023/06/10 10:04:44;;;;;;;;;;;27.00;57.40;;;27.54;35.64;98324.78;5019390;27;114221;-84
2023/06/10 10:07:11;;;;;;;;;;;27.00;57.00;;;27.57;35.46;98317.41;5014816;27;113217;-84
2023/06/10 10:09:41;;;;;;;;;;;27.00;56.90;;;27.56;35.47;98317.84;5010771;28;124028;-84
2023/06/10 10:12:13;;;;;;;;;;;27.00;56.90;;;27.60;35.58;98319.38;5010890;28;122518;-85
2023/06/10 10:14:39;;;;;;;;;;;27.10;56.90;;;27.64;35.68;98320.06;5010529;28;113945;-84
2023/06/10 10:17:10;;;;;;;;;;;27.10;57.00;;;27.70;35.77;98318.34;5020156;28;114031;-84
2023/06/10 10:19:44;;;;;;;;;;;27.10;56.90;;;27.74;35.67;98310.53;5035657;27;124633;-84
2023/06/10 10:22:39;;;;;;;;;;;27.20;56.70;;;27.79;35.05;98308.41;5041176;27;124552;-84
2023/06/10 10:25:10;;;;;;;;;;;27.20;56.30;;;27.80;35.17;98310.81;5018126;28;115219;-84
2023/06/10 10:27:46;;;;;;;;;;;27.30;56.00;;;27.86;34.84;98303.41;5011403;28;113802;-85
2023/06/10 10:30:14;;;;;;;;;;;27.30;55.80;;;27.92;34.53;98301.63;5017868;28;124337;-85
2023/06/10 10:32:45;;;;;;;;;;;27.40;55.30;;;27.97;34.30;98303.16;5016586;28;123958;-85
2023/06/10 10:35:20;;;;;;;;;;;27.40;55.20;;;28.01;34.43;98300.22;5023661;28;114321;-84
2023/06/10 10:37:47;;;;;;;;;;;26.00;54.20;;;28.07;34.41;98290.72;5013209;28;112778;-84
2023/06/10 10:40:13;;;;;;;;;;;27.50;55.00;;;28.12;33.89;98295.84;5027867;28;124321;-85
2023/06/10 10:42:40;;;;;;;;;;;27.60;54.40;;;28.17;33.87;98292.50;5003077;28;122992;-84
2023/06/10 10:45:08;;;;;;;;;;;27.70;54.50;;;28.24;33.66;98287.88;5028781;28;113102;-84
2023/06/10 10:47:36;;;;;;;;;;;27.70;54.40;;;28.31;33.71;98299.06;5021532;27;113322;-84
2023/06/10 10:50:13;;;;;;;;;;;27.80;54.30;;;28.36;33.28;98290.78;5037016;27;123465;-84
2023/06/10 10:52:52;;;;;;;;;;;27.80;53.70;;;28.40;33.58;98291.50;5010324;27;123959;-84
2023/06/10 10:55:18;;;;;;;;;;;27.90;54.00;;;28.48;33.44;98292.16;5026905;27;114202;-84
2023/06/10 10:57:59;;;;;;;;;;;27.90;54.00;;;28.45;33.31;98286.56;5014998;27;113978;-85
2023/06/10 11:00:32;;;;;;;;;;;27.90;53.60;;;28.41;33.65;98289.47;5008887;27;124610;-85
2023/06/10 11:03:02;;;;;;;;;;;27.90;53.90;;;28.41;33.80;98293.09;5012521;27;124196;-85
2023/06/10 11:05:48;;;;;;;;;;;27.90;54.10;;;28.42;33.92;98286.19;5020420;27;112927;-85
2023/06/10 11:08:35;;;;;;;;;;;28.00;54.20;;;28.50;33.74;98283.16;5038020;27;113571;-85
2023/06/10 11:11:20;;;;;;;;;;;28.00;54.10;;;28.52;33.76;98281.47;5037279;27;124502;-84
2023/06/10 11:14:04;;;;;;;;;;;28.10;54.00;;;28.60;33.86;98287.78;5039969;27;125626;-85